createdAt,value
2023-01-25T00:01:11.462Z,31.65
2023-01-25T00:03:39.491Z,32.30
2023-01-25T00:06:08.974Z,32.53
2023-01-25T00:08:38.491Z,31.05
2023-01-25T00:11:06.464Z,30.95
2023-01-25T00:13:34.214Z,33.20
2023-01-25T00:16:03.092Z,30.95
2023-01-25T00:18:31.202Z,33.28
2023-01-25T00:20:58.982Z,34.78
2023-01-25T00:23:28.058Z,34.28
2023-01-25T00:25:58.991Z,34.90
2023-01-25T00:28:27.107Z,31.67
2023-01-25T00:30:54.947Z,32.78
2023-01-25T00:33:36.455Z,33.15
2023-01-25T00:36:27.920Z,35.97
2023-01-25T00:38:58.939Z,37.42
2023-01-25T00:41:27.694Z,38.78
2023-01-25T00:43:55.961Z,33.92
2023-01-25T00:46:24.521Z,33.42
2023-01-25T00:48:54.674Z,34.50
2023-01-25T00:51:22.725Z,33.60
2023-01-25T00:53:51.003Z,33.92
2023-01-25T00:56:20.159Z,32.28
2023-01-25T00:58:48.196Z,34.78
2023-01-25T01:01:18.814Z,34.45
2023-01-25T01:03:46.821Z,37.15
2023-01-25T01:06:14.800Z,33.53
2023-01-25T01:08:43.477Z,35.72
2023-01-25T01:11:12.912Z,36.03
2023-01-25T01:13:42.380Z,38.42
2023-01-25T01:16:12.403Z,34.75
2023-01-25T01:18:43.566Z,32.95
2023-01-25T01:21:12.377Z,36.03
2023-01-25T01:23:40.508Z,35.47
2023-01-25T01:26:10.471Z,35.05
2023-01-25T01:28:39.634Z,36.03
2023-01-25T01:31:12.150Z,34.75
2023-01-25T01:33:44.105Z,36.75
2023-01-25T01:36:14.858Z,35.10
2023-01-25T01:38:43.122Z,34.63
2023-01-25T01:41:11.854Z,34.53
2023-01-25T01:43:40.253Z,36.63
2023-01-25T01:46:15.664Z,34.38
2023-01-25T01:48:47.074Z,34.10
2023-01-25T01:51:22.839Z,34.38
2023-01-25T01:53:54.285Z,35.15
2023-01-25T01:56:25.846Z,36.03
2023-01-25T01:58:55.754Z,36.28
2023-01-25T02:01:25.405Z,38.28
2023-01-25T02:03:53.959Z,37.55
2023-01-25T02:06:27.918Z,35.95
2023-01-25T02:08:56.018Z,43.85
2023-01-25T02:11:24.096Z,34.60
2023-01-25T02:13:52.958Z,39.47
2023-01-25T02:16:25.922Z,38.08
2023-01-25T02:18:55.427Z,40.70
2023-01-25T02:21:25.123Z,37.15
2023-01-25T02:23:56.824Z,40.65
2023-01-25T02:26:26.401Z,40.58
2023-01-25T02:28:57.301Z,37.95
2023-01-25T02:31:25.779Z,38.40
2023-01-25T02:33:53.683Z,38.92
2023-01-25T02:36:23.755Z,39.72
2023-01-25T02:38:54.609Z,40.47
2023-01-25T02:41:33.878Z,43.85
2023-01-25T02:44:04.295Z,41.33
2023-01-25T02:46:33.846Z,40.67
2023-01-25T02:49:03.541Z,43.22
2023-01-25T02:51:33.638Z,40.60
2023-01-25T02:54:01.641Z,39.88
2023-01-25T02:56:31.466Z,39.75
2023-01-25T02:58:59.580Z,40.35
2023-01-25T03:01:27.416Z,36.70
2023-01-25T03:03:55.414Z,40.80
2023-01-25T03:06:23.800Z,38.58
2023-01-25T03:08:51.905Z,44.13
2023-01-25T03:11:20.557Z,41.97
2023-01-25T03:13:49.836Z,41.40
2023-01-25T03:16:19.656Z,39.58
2023-01-25T03:18:48.302Z,39.97
2023-01-25T03:21:18.687Z,39.67
2023-01-25T03:23:47.900Z,38.55
2023-01-25T03:26:23.135Z,46.67
2023-01-25T03:29:15.466Z,43.42
2023-01-25T03:31:45.646Z,43.95
2023-01-25T03:34:14.011Z,44.35
2023-01-25T03:36:43.490Z,42.28
2023-01-25T03:39:11.451Z,41.70
2023-01-25T03:41:44.618Z,40.92
2023-01-25T03:44:15.949Z,39.33
2023-01-25T03:46:46.133Z,46.20
2023-01-25T03:49:14.263Z,44.67
2023-01-25T03:51:42.607Z,43.13
2023-01-25T03:54:10.929Z,45.55
2023-01-25T03:56:39.348Z,41.92
2023-01-25T03:59:20.947Z,44.50
2023-01-25T04:01:49.142Z,44.28
2023-01-25T04:04:17.033Z,43.83
2023-01-25T04:06:47.005Z,41.35
2023-01-25T04:09:15.532Z,44.35
2023-01-25T04:11:50.451Z,46.72
2023-01-25T04:14:31.877Z,48.85
2023-01-25T04:17:08.328Z,44.33
2023-01-25T04:19:43.199Z,42.67
2023-01-25T04:22:17.533Z,43.17
2023-01-25T04:24:45.650Z,46.90
2023-01-25T04:27:13.710Z,42.85
2023-01-25T04:29:58.556Z,41.38
2023-01-25T04:32:27.865Z,44.55
2023-01-25T04:34:56.557Z,39.08
2023-01-25T04:37:27.952Z,43.47
2023-01-25T04:39:59.192Z,39.55
2023-01-25T04:42:29.793Z,43.80
2023-01-25T04:44:59.777Z,41.97
2023-01-25T04:47:27.942Z,41.65
2023-01-25T04:49:56.024Z,45.15
2023-01-25T04:52:26.346Z,42.97
2023-01-25T04:54:54.327Z,43.60
2023-01-25T04:57:22.548Z,38.78
2023-01-25T04:59:53.586Z,40.65
2023-01-25T05:02:25.018Z,46.40
2023-01-25T05:04:53.759Z,43.10
2023-01-25T05:07:22.337Z,40.15
2023-01-25T05:09:50.757Z,42.58
2023-01-25T05:12:20.472Z,39.55
2023-01-25T05:15:02.197Z,41.67
2023-01-25T05:17:31.771Z,39.70
2023-01-25T05:20:00.934Z,42.13
2023-01-25T05:22:29.184Z,42.05
2023-01-25T05:24:59.245Z,38.72
2023-01-25T05:27:26.443Z,46.58
2023-01-25T05:29:54.419Z,45.67
2023-01-25T05:32:27.744Z,42.00
2023-01-25T05:34:58.313Z,48.00
2023-01-25T05:37:28.599Z,42.50
2023-01-25T05:40:02.411Z,41.70
2023-01-25T05:42:33.934Z,46.70
2023-01-25T05:45:02.727Z,46.10
2023-01-25T05:47:31.743Z,48.45
2023-01-25T05:50:01.643Z,51.20
2023-01-25T05:52:43.064Z,48.05
2023-01-25T05:55:13.264Z,51.95
2023-01-25T05:57:43.138Z,47.03
2023-01-25T06:00:12.357Z,53.88
2023-01-25T06:02:43.292Z,46.67
2023-01-25T06:05:18.014Z,50.58
2023-01-25T06:07:45.997Z,54.22
2023-01-25T06:10:15.003Z,48.67
2023-01-25T06:12:43.691Z,52.25
2023-01-25T06:15:12.302Z,56.60
2023-01-25T06:17:41.030Z,49.53
2023-01-25T06:20:30.622Z,53.65
2023-01-25T06:23:16.795Z,50.20
2023-01-25T06:25:44.611Z,49.95
2023-01-25T06:28:12.351Z,52.85
2023-01-25T06:30:41.609Z,54.88
2023-01-25T06:33:09.711Z,54.97
2023-01-25T06:35:40.469Z,52.05
2023-01-25T06:38:08.643Z,57.15
2023-01-25T06:40:36.603Z,54.55
2023-01-25T06:43:08.515Z,58.50
2023-01-25T06:45:36.311Z,55.60
2023-01-25T06:48:04.319Z,61.30
2023-01-25T06:50:32.283Z,59.42
2023-01-25T06:53:01.393Z,59.75
2023-01-25T06:55:29.242Z,58.75
2023-01-25T06:57:57.106Z,59.33
2023-01-25T07:00:25.000Z,56.78
2023-01-25T07:02:52.898Z,59.05
2023-01-25T07:05:20.727Z,56.38
2023-01-25T07:07:48.599Z,56.63
2023-01-25T07:10:18.006Z,54.67
2023-01-25T07:12:46.012Z,59.92
2023-01-25T07:15:13.768Z,60.17
2023-01-25T07:17:41.716Z,60.38
2023-01-25T07:20:10.906Z,58.35
2023-01-25T07:22:38.725Z,59.80
2023-01-25T07:25:07.842Z,58.85
2023-01-25T07:27:37.865Z,59.15
2023-01-25T07:30:07.089Z,57.53
2023-01-25T07:32:34.959Z,65.05
2023-01-25T07:35:02.860Z,58.88
2023-01-25T07:37:30.789Z,56.58
2023-01-25T07:39:58.640Z,62.10
2023-01-25T07:42:26.627Z,61.03
2023-01-25T07:45:13.332Z,64.40
2023-01-25T07:47:41.228Z,67.72
2023-01-25T07:50:10.459Z,61.53
2023-01-25T07:52:38.424Z,68.05
2023-01-25T07:55:07.474Z,67.03
2023-01-25T07:57:35.552Z,63.70
2023-01-25T08:00:03.949Z,58.72
2023-01-25T08:02:41.711Z,63.47
2023-01-25T08:05:10.919Z,60.25
2023-01-25T08:07:39.055Z,57.13
2023-01-25T08:10:08.175Z,64.15
2023-01-25T08:12:35.973Z,59.17
2023-01-25T08:15:04.316Z,61.80
2023-01-25T08:17:33.328Z,65.22
2023-01-25T08:20:03.019Z,71.65
2023-01-25T08:22:30.860Z,63.25
2023-01-25T08:25:01.209Z,62.72
2023-01-25T08:27:29.103Z,66.03
2023-01-25T08:29:56.932Z,56.30
2023-01-25T08:32:24.829Z,58.78
2023-01-25T08:34:52.683Z,64.38
2023-01-25T08:37:21.975Z,65.95
2023-01-25T08:39:49.860Z,66.07
2023-01-25T08:42:17.832Z,63.15
2023-01-25T08:44:45.759Z,65.18
2023-01-25T08:47:13.919Z,61.80
2023-01-25T08:49:41.709Z,59.42
2023-01-25T08:52:09.656Z,54.40
2023-01-25T08:54:38.859Z,60.35
2023-01-25T08:57:06.561Z,58.40
2023-01-25T08:59:34.687Z,58.55
2023-01-25T09:02:02.546Z,59.13
2023-01-25T09:04:30.544Z,61.35
2023-01-25T09:06:58.712Z,63.03
2023-01-25T09:09:26.670Z,59.67
2023-01-25T09:11:55.930Z,60.72
2023-01-25T09:14:23.985Z,61.65
2023-01-25T09:16:52.229Z,57.38
2023-01-25T09:19:20.076Z,64.43
2023-01-25T09:21:48.523Z,63.20
2023-01-25T09:24:16.433Z,59.88
2023-01-25T09:26:50.137Z,59.42
2023-01-25T09:29:25.010Z,63.17
2023-01-25T09:31:53.166Z,67.55
2023-01-25T09:34:33.044Z,71.38
2023-01-25T09:37:00.901Z,64.82
2023-01-25T09:39:28.794Z,60.28
2023-01-25T09:42:22.687Z,58.60
2023-01-25T09:45:08.956Z,54.95
2023-01-25T09:47:43.624Z,62.78
2023-01-25T09:50:23.896Z,56.28
2023-01-25T09:53:19.993Z,54.97
2023-01-25T09:55:54.015Z,60.28
2023-01-25T10:00:56.032Z,55.90
2023-01-25T10:03:27.305Z,56.47
2023-01-25T10:05:57.887Z,54.10
2023-01-25T10:08:29.303Z,58.25
2023-01-25T10:11:02.134Z,55.55
2023-01-25T10:13:32.079Z,62.30
2023-01-25T10:16:14.661Z,62.78
2023-01-25T10:18:55.361Z,60.63
2023-01-25T10:21:29.678Z,59.60
2023-01-25T10:26:46.373Z,57.47
2023-01-25T10:29:18.178Z,62.40
2023-01-25T10:31:50.481Z,66.97
2023-01-25T10:34:20.592Z,64.65
2023-01-25T10:36:49.599Z,63.67
2023-01-25T10:39:19.224Z,64.78
2023-01-25T10:41:50.087Z,67.45
2023-01-25T10:44:24.723Z,61.83
2023-01-25T10:46:58.903Z,65.75
2023-01-25T10:49:30.756Z,66.03
2023-01-25T10:52:13.658Z,63.35
2023-01-25T10:54:41.449Z,61.20
2023-01-25T10:57:10.179Z,65.43
2023-01-25T10:59:38.369Z,62.20
2023-01-25T11:02:47.873Z,61.25
2023-01-25T11:05:28.192Z,59.47
2023-01-25T11:07:56.571Z,61.17
2023-01-25T11:10:32.511Z,61.53
2023-01-25T11:13:24.113Z,61.70
2023-01-25T11:15:53.370Z,76.85
2023-01-25T11:18:23.944Z,70.60
2023-01-25T11:21:12.595Z,65.25
2023-01-25T11:23:40.733Z,57.55
2023-01-25T11:26:14.480Z,58.97
2023-01-25T11:28:42.966Z,67.65
2023-01-25T11:31:14.216Z,62.63
2023-01-25T11:33:42.651Z,66.50
2023-01-25T11:36:19.925Z,67.60
2023-01-25T11:38:59.509Z,64.55
2023-01-25T11:41:35.150Z,59.33
2023-01-25T11:44:14.133Z,64.07
2023-01-25T11:46:54.097Z,61.30
2023-01-25T11:49:38.618Z,64.20
2023-01-25T11:52:17.322Z,62.42
2023-01-25T11:54:52.587Z,59.97
2023-01-25T11:57:34.914Z,64.70
2023-01-25T12:00:18.983Z,58.72
2023-01-25T12:03:16.610Z,56.55
2023-01-25T12:05:51.669Z,61.30
2023-01-25T12:08:33.105Z,63.78
2023-01-25T12:11:07.579Z,63.10
2023-01-25T12:13:41.795Z,62.40
2023-01-25T12:16:19.363Z,63.75
2023-01-25T12:19:01.896Z,63.58
2023-01-25T12:21:42.085Z,66.50
2023-01-25T12:24:23.515Z,61.90
2023-01-25T12:26:58.148Z,64.05
2023-01-25T12:29:28.341Z,66.28
2023-01-25T12:32:00.095Z,62.90
2023-01-25T12:34:32.644Z,63.17
2023-01-25T12:37:02.036Z,62.80
2023-01-25T12:39:35.728Z,81.68
2023-01-25T12:42:11.793Z,84.88
2023-01-25T12:44:42.998Z,67.38
2023-01-25T12:47:16.408Z,61.38
2023-01-25T12:49:49.734Z,59.08
2023-01-25T12:52:22.691Z,67.18
2023-01-25T12:54:54.429Z,67.80
2023-01-25T12:57:27.069Z,53.10
2023-01-25T13:00:00.995Z,57.72
2023-01-25T13:02:47.977Z,62.42
2023-01-25T13:05:26.562Z,59.20
2023-01-25T13:08:03.383Z,55.88
2023-01-25T13:10:36.743Z,59.45
2023-01-25T13:13:21.996Z,56.53
2023-01-25T13:15:50.012Z,59.40
2023-01-25T13:18:37.587Z,60.80
2023-01-25T13:21:08.388Z,62.40
2023-01-25T13:23:43.874Z,63.40
2023-01-25T13:26:40.298Z,62.45
2023-01-25T13:29:53.017Z,58.33
2023-01-25T13:33:07.067Z,66.07
2023-01-25T13:35:40.831Z,65.73
2023-01-25T13:38:38.494Z,70.63
2023-01-25T13:41:12.186Z,62.67
2023-01-25T13:43:43.622Z,67.15
2023-01-25T13:46:14.775Z,67.10
2023-01-25T13:48:49.863Z,73.50
2023-01-25T13:51:19.235Z,71.30
2023-01-25T13:53:57.309Z,68.43
2023-01-25T13:56:27.687Z,67.25
2023-01-25T13:58:56.886Z,70.07
2023-01-25T14:01:24.998Z,73.30
2023-01-25T14:03:56.678Z,89.90
2023-01-25T14:06:26.271Z,232.60
2023-01-25T14:08:56.717Z,283.00
2023-01-25T14:11:26.767Z,74.90
2023-01-25T14:14:00.865Z,71.32
2023-01-25T14:16:30.183Z,232.73
2023-01-25T14:19:14.905Z,184.75
2023-01-25T14:21:42.726Z,99.90
2023-01-25T14:24:11.302Z,110.40
2023-01-25T14:26:42.113Z,89.13
2023-01-25T14:29:31.727Z,118.85
2023-01-25T14:32:00.623Z,112.68
2023-01-25T14:34:28.437Z,94.43
2023-01-25T14:37:06.988Z,96.80
2023-01-25T14:39:35.234Z,91.45
2023-01-25T14:42:04.468Z,114.47
2023-01-25T14:44:34.711Z,90.15
2023-01-25T14:47:31.059Z,96.22
2023-01-25T14:50:32.213Z,95.40
2023-01-25T14:53:01.516Z,81.22
2023-01-25T14:55:29.791Z,81.25
2023-01-25T14:58:00.121Z,84.88
2023-01-25T15:00:32.211Z,82.47
2023-01-25T15:03:02.118Z,86.85
2023-01-25T15:05:33.122Z,84.47
2023-01-25T15:08:16.633Z,88.35
2023-01-25T15:10:54.721Z,84.05
2023-01-25T15:13:24.452Z,120.00
2023-01-25T15:15:57.960Z,100.20
2023-01-25T15:18:45.497Z,348.05
2023-01-25T15:21:14.597Z,140.20
2023-01-25T15:23:43.129Z,93.70
2023-01-25T15:26:16.341Z,111.72
2023-01-25T15:28:44.167Z,351.70
2023-01-25T15:31:17.747Z,333.92
2023-01-25T15:33:45.772Z,264.80
2023-01-25T15:36:16.000Z,206.88
2023-01-25T15:38:44.129Z,161.88
2023-01-25T15:41:12.440Z,131.25
2023-01-25T15:43:40.791Z,115.97
2023-01-25T15:46:15.113Z,88.63
2023-01-25T15:48:45.964Z,161.95
2023-01-25T15:51:14.354Z,199.63
2023-01-25T15:53:42.471Z,118.85
2023-01-25T15:56:15.318Z,108.82
2023-01-25T15:58:45.484Z,87.25
2023-01-25T16:01:13.285Z,83.20
2023-01-25T16:03:41.702Z,80.88
2023-01-25T16:06:23.679Z,75.30
2023-01-25T16:08:51.686Z,79.88
2023-01-25T16:11:19.452Z,79.82
2023-01-25T16:13:48.048Z,73.53
2023-01-25T16:16:19.366Z,71.90
2023-01-25T16:18:47.359Z,74.00
2023-01-25T16:21:16.997Z,70.82
2023-01-25T16:23:44.952Z,73.70
2023-01-25T16:26:18.879Z,81.05
2023-01-25T16:31:30.217Z,72.88
2023-01-25T16:33:59.745Z,79.78
2023-01-25T16:36:29.545Z,80.82
2023-01-25T16:38:57.301Z,77.97
2023-01-25T16:41:25.349Z,83.68
2023-01-25T16:43:53.606Z,76.32
2023-01-25T16:46:23.011Z,87.82
2023-01-25T16:48:52.498Z,86.63
2023-01-25T16:51:22.835Z,80.13
2023-01-25T16:53:53.595Z,88.03
2023-01-25T16:56:23.258Z,81.68
2023-01-25T16:58:52.104Z,80.38
2023-01-25T17:01:21.660Z,90.10
2023-01-25T17:03:49.835Z,84.75
2023-01-25T17:06:20.210Z,87.32
2023-01-25T17:08:48.151Z,82.65
2023-01-25T17:11:19.190Z,95.03
2023-01-25T17:13:49.316Z,87.18
2023-01-25T17:16:20.499Z,84.22
2023-01-25T17:18:48.954Z,82.70
2023-01-25T17:21:17.784Z,81.28
2023-01-25T17:23:45.802Z,89.60
2023-01-25T17:26:15.203Z,245.93
2023-01-25T17:28:45.620Z,96.50
2023-01-25T17:31:20.232Z,82.80
2023-01-25T17:33:48.157Z,82.32
2023-01-25T17:36:16.305Z,85.88
2023-01-25T17:38:44.518Z,85.22
2023-01-25T17:41:15.032Z,85.65
2023-01-25T17:43:44.736Z,82.43
2023-01-25T17:46:13.757Z,86.00
2023-01-25T17:48:42.300Z,81.78
2023-01-25T17:51:10.522Z,83.65
2023-01-25T17:53:38.411Z,81.90
2023-01-25T17:56:08.475Z,86.18
2023-01-25T17:58:38.432Z,83.53
2023-01-25T18:01:14.351Z,90.63
2023-01-25T18:03:42.702Z,84.97
2023-01-25T18:06:10.784Z,94.47
2023-01-25T18:08:40.725Z,87.95
2023-01-25T18:11:10.383Z,98.13
2023-01-25T18:13:40.437Z,82.82
2023-01-25T18:16:09.595Z,88.32
2023-01-25T18:18:39.644Z,92.70
2023-01-25T18:21:09.066Z,95.05
2023-01-25T18:23:38.330Z,89.97
2023-01-25T18:26:06.674Z,87.60
2023-01-25T18:28:35.691Z,87.93
2023-01-25T18:31:07.218Z,92.00
2023-01-25T18:33:35.128Z,90.22
2023-01-25T18:36:05.573Z,89.97
2023-01-25T18:38:34.281Z,87.95
2023-01-25T18:41:02.335Z,94.38
2023-01-25T18:43:30.315Z,89.65
2023-01-25T18:46:00.126Z,93.25
2023-01-25T18:48:31.372Z,96.05
2023-01-25T18:50:59.941Z,99.50
2023-01-25T18:53:32.430Z,100.13
2023-01-25T18:56:02.052Z,103.28
2023-01-25T18:58:31.566Z,94.25
2023-01-25T19:01:04.385Z,97.35
2023-01-25T19:03:33.067Z,101.97
2023-01-25T19:06:01.115Z,101.15
2023-01-25T19:08:32.500Z,116.65
2023-01-25T19:11:01.473Z,204.15
2023-01-25T19:13:32.157Z,116.97
2023-01-25T19:16:02.339Z,101.63
2023-01-25T19:18:31.917Z,106.72
2023-01-25T19:21:00.419Z,111.57
2023-01-25T19:23:35.008Z,115.32
2023-01-25T19:26:03.114Z,110.72
2023-01-25T19:28:30.977Z,112.85
2023-01-25T19:31:07.078Z,122.53
2023-01-25T19:33:35.174Z,116.75
2023-01-25T19:36:05.269Z,108.80
2023-01-25T19:38:33.254Z,122.88
2023-01-25T19:41:06.564Z,116.93
2023-01-25T19:43:34.726Z,117.85
2023-01-25T19:46:10.098Z,127.55
2023-01-25T19:48:38.647Z,138.63
2023-01-25T19:51:14.251Z,126.63
2023-01-25T19:53:46.481Z,125.47
2023-01-25T19:56:17.119Z,137.00
2023-01-25T19:58:46.446Z,132.93
2023-01-25T20:01:16.093Z,131.55
2023-01-25T20:03:44.039Z,132.10
2023-01-25T20:06:13.222Z,125.93
2023-01-25T20:08:42.790Z,123.95
2023-01-25T20:11:12.936Z,139.57
2023-01-25T20:13:42.967Z,131.77
2023-01-25T20:16:13.949Z,130.57
2023-01-25T20:18:41.805Z,139.95
2023-01-25T20:21:12.682Z,120.57
2023-01-25T20:23:42.097Z,142.10
2023-01-25T20:26:13.795Z,134.10
2023-01-25T20:28:44.381Z,144.23
2023-01-25T20:31:23.652Z,147.23
2023-01-25T20:33:53.021Z,172.88
2023-01-25T20:36:23.929Z,160.20
2023-01-25T20:38:52.076Z,167.40
2023-01-25T20:41:20.026Z,151.07
2023-01-25T20:43:50.799Z,164.23
2023-01-25T20:46:20.062Z,168.57
2023-01-25T20:48:48.780Z,139.30
2023-01-25T20:51:17.821Z,155.93
2023-01-25T20:53:46.650Z,168.52
2023-01-25T20:56:15.359Z,174.07
2023-01-25T20:58:45.470Z,156.50
2023-01-25T21:01:16.217Z,153.48
2023-01-25T21:03:44.175Z,148.27
2023-01-25T21:06:12.518Z,157.82
2023-01-25T21:08:40.915Z,153.90
2023-01-25T21:11:09.191Z,172.73
2023-01-25T21:13:37.363Z,187.05
2023-01-25T21:16:07.643Z,182.65
2023-01-25T21:18:38.306Z,169.57
2023-01-25T21:21:08.087Z,167.73
2023-01-25T21:23:36.886Z,166.25
2023-01-25T21:26:06.758Z,181.63
2023-01-25T21:28:35.788Z,204.10
2023-01-25T21:31:08.824Z,183.27
2023-01-25T21:33:38.611Z,179.90
2023-01-25T21:36:11.759Z,174.63
2023-01-25T21:38:40.202Z,166.80
2023-01-25T21:41:09.343Z,179.82
2023-01-25T21:43:51.341Z,162.98
2023-01-25T21:46:25.511Z,177.27
2023-01-25T21:49:16.013Z,176.05
2023-01-25T21:51:49.528Z,183.95
2023-01-25T21:54:18.853Z,189.27
2023-01-25T21:56:47.701Z,171.80
2023-01-25T21:59:16.398Z,162.07
2023-01-25T22:01:45.092Z,160.30
2023-01-25T22:04:16.073Z,159.10
2023-01-25T22:06:44.433Z,171.02
2023-01-25T22:09:13.932Z,163.65
2023-01-25T22:11:45.851Z,163.23
2023-01-25T22:14:13.816Z,161.90
2023-01-25T22:16:41.731Z,149.20
2023-01-25T22:19:09.782Z,165.30
2023-01-25T22:21:39.206Z,146.50
2023-01-25T22:24:08.560Z,152.30
2023-01-25T22:26:46.067Z,160.57
2023-01-25T22:29:15.014Z,148.43
2023-01-25T22:31:43.199Z,155.23
2023-01-25T22:34:12.217Z,154.55
2023-01-25T22:36:41.318Z,147.43
2023-01-25T22:39:10.221Z,154.35
2023-01-25T22:41:38.778Z,150.80
2023-01-25T22:44:06.746Z,141.52
2023-01-25T22:46:34.973Z,137.98
2023-01-25T22:49:03.663Z,144.55
2023-01-25T22:51:31.836Z,137.65
2023-01-25T22:54:01.423Z,143.82
2023-01-25T22:56:34.742Z,138.15
2023-01-25T22:59:02.934Z,138.70
2023-01-25T23:01:32.390Z,147.00
2023-01-25T23:04:00.860Z,146.00
2023-01-25T23:06:30.513Z,143.60
2023-01-25T23:09:03.398Z,143.35
2023-01-25T23:11:35.766Z,143.73
2023-01-25T23:14:21.580Z,151.70
2023-01-25T23:16:49.461Z,137.02
2023-01-25T23:19:16.451Z,131.60
2023-01-25T23:21:44.361Z,141.13
2023-01-25T23:24:13.641Z,134.38
2023-01-25T23:26:46.516Z,143.75
2023-01-25T23:29:15.193Z,142.17
2023-01-25T23:31:43.287Z,137.57
2023-01-25T23:34:12.459Z,133.32
2023-01-25T23:36:42.324Z,142.10
2023-01-25T23:39:14.765Z,121.43
2023-01-25T23:41:42.646Z,122.88
2023-01-25T23:44:10.511Z,130.23
2023-01-25T23:46:38.443Z,123.68
2023-01-25T23:49:06.325Z,125.97
2023-01-25T23:51:34.175Z,121.72
2023-01-25T23:54:02.070Z,120.55
2023-01-25T23:56:31.409Z,132.48
2023-01-25T23:58:59.270Z,127.97
